createdAt,value
2024-04-07T00:00:00.650Z,883.8
2024-04-07T00:01:00.590Z,883.7
2024-04-07T00:02:00.630Z,883.8
2024-04-07T00:03:00.891Z,883.7
2024-04-07T00:04:00.725Z,883.6
2024-04-07T00:05:00.582Z,883.7
2024-04-07T00:06:00.697Z,883.7
2024-04-07T00:07:00.575Z,883.7
2024-04-07T00:08:00.591Z,883.7
2024-04-07T00:09:00.592Z,883.7
2024-04-07T00:10:00.639Z,883.7
2024-04-07T00:11:00.587Z,883.7
2024-04-07T00:12:00.607Z,883.7
2024-04-07T00:13:00.587Z,883.8
2024-04-07T00:14:00.588Z,883.8
2024-04-07T00:15:00.656Z,883.8
2024-04-07T00:16:00.598Z,883.8
2024-04-07T00:17:00.589Z,883.8
2024-04-07T00:18:00.580Z,883.8
2024-04-07T00:19:00.633Z,883.9
2024-04-07T00:20:00.579Z,883.9
2024-04-07T00:21:00.646Z,883.9
2024-04-07T00:22:00.644Z,883.9
2024-04-07T00:23:00.599Z,883.9
2024-04-07T00:24:00.590Z,883.9
2024-04-07T00:25:00.588Z,883.8
2024-04-07T00:26:00.585Z,883.8
2024-04-07T00:27:00.654Z,883.8
2024-04-07T00:28:01.095Z,883.8
2024-04-07T00:29:00.585Z,883.8
2024-04-07T00:30:00.636Z,883.8
2024-04-07T00:31:00.600Z,883.8
2024-04-07T00:32:00.656Z,883.8
2024-04-07T00:33:00.579Z,883.8
2024-04-07T00:34:00.576Z,883.8
2024-04-07T00:35:00.762Z,883.8
2024-04-07T00:36:00.616Z,883.7
2024-04-07T00:37:00.595Z,883.7
2024-04-07T00:38:00.653Z,883.7
2024-04-07T00:39:00.585Z,883.7
2024-04-07T00:40:00.654Z,883.7
2024-04-07T00:41:00.574Z,883.7
2024-04-07T00:42:00.632Z,883.7
2024-04-07T00:43:00.576Z,883.7
2024-04-07T00:44:00.665Z,883.7
2024-04-07T00:45:00.598Z,883.7
2024-04-07T00:46:00.638Z,883.8
2024-04-07T00:47:00.763Z,883.8
2024-04-07T00:48:00.645Z,883.8
2024-04-07T00:49:00.637Z,883.8
2024-04-07T00:50:00.778Z,883.9
2024-04-07T00:51:00.605Z,883.9
2024-04-07T00:52:00.588Z,883.9
2024-04-07T00:53:00.616Z,883.9
2024-04-07T00:54:00.666Z,883.9
2024-04-07T00:55:00.589Z,883.9
2024-04-07T00:56:00.623Z,883.9
2024-04-07T00:57:00.616Z,883.9
2024-04-07T00:58:00.626Z,883.9
2024-04-07T00:59:00.630Z,884.0
2024-04-07T01:00:00.572Z,884.0
2024-04-07T01:01:00.637Z,883.9
2024-04-07T01:02:00.665Z,883.9
2024-04-07T01:03:00.598Z,883.9
2024-04-07T01:04:00.573Z,883.9
2024-04-07T01:05:00.622Z,883.9
2024-04-07T01:06:00.591Z,883.9
2024-04-07T01:07:00.587Z,883.9
2024-04-07T01:08:00.857Z,883.9
2024-04-07T01:09:00.644Z,884.0
2024-04-07T01:10:00.589Z,884.0
2024-04-07T01:11:00.591Z,883.9
2024-04-07T01:12:00.588Z,884.0
2024-04-07T01:13:00.603Z,883.9
2024-04-07T01:14:00.632Z,884.0
2024-04-07T01:15:00.613Z,884.0
2024-04-07T01:16:00.590Z,884.0
2024-04-07T01:17:00.643Z,884.0
2024-04-07T01:18:00.599Z,884.1
2024-04-07T01:19:00.583Z,884.1
2024-04-07T01:20:00.621Z,884.2
2024-04-07T01:21:00.582Z,884.2
2024-04-07T01:22:00.576Z,884.2
2024-04-07T01:23:00.629Z,884.3
2024-04-07T01:24:00.572Z,884.2
2024-04-07T01:25:00.631Z,884.2
2024-04-07T01:26:00.587Z,884.2
2024-04-07T01:27:00.663Z,884.2
2024-04-07T01:28:00.593Z,884.2
2024-04-07T01:29:00.714Z,884.2
2024-04-07T01:30:00.649Z,884.2
2024-04-07T01:31:00.583Z,884.2
2024-04-07T01:32:00.617Z,884.2
2024-04-07T01:33:00.627Z,884.2
2024-04-07T01:34:00.633Z,884.2
2024-04-07T01:35:00.618Z,884.2
2024-04-07T01:36:00.611Z,884.2
2024-04-07T01:37:00.574Z,884.2
2024-04-07T01:38:00.598Z,884.2
2024-04-07T01:39:00.591Z,884.3
2024-04-07T01:40:00.827Z,884.3
2024-04-07T01:41:00.580Z,884.4
2024-04-07T01:42:00.574Z,884.4
2024-04-07T01:43:00.584Z,884.4
2024-04-07T01:44:00.635Z,884.4
2024-04-07T01:45:00.649Z,884.4
2024-04-07T01:46:00.627Z,884.4
2024-04-07T01:47:00.571Z,884.4
2024-04-07T01:48:00.577Z,884.4
2024-04-07T01:49:00.580Z,884.3
2024-04-07T01:50:00.618Z,884.3
2024-04-07T01:51:00.656Z,884.3
2024-04-07T01:52:00.587Z,884.3
2024-04-07T01:53:00.606Z,884.3
2024-04-07T01:54:00.658Z,884.3
2024-04-07T01:55:00.644Z,884.4
2024-04-07T01:56:00.587Z,884.4
2024-04-07T01:57:00.640Z,884.4
2024-04-07T01:58:00.588Z,884.4
2024-04-07T01:59:00.594Z,884.4
2024-04-07T02:00:00.601Z,884.4
2024-04-07T02:01:00.577Z,884.5
2024-04-07T02:02:00.592Z,884.5
2024-04-07T02:03:00.647Z,884.5
2024-04-07T02:04:00.590Z,884.5
2024-04-07T02:05:00.588Z,884.5
2024-04-07T02:06:00.598Z,884.5
2024-04-07T02:07:00.632Z,884.5
2024-04-07T02:08:00.637Z,884.5
2024-04-07T02:09:00.809Z,884.5
2024-04-07T02:10:00.692Z,884.5
2024-04-07T02:11:00.629Z,884.5
2024-04-07T02:12:00.662Z,884.5
2024-04-07T02:13:00.675Z,884.5
2024-04-07T02:14:00.629Z,884.5
2024-04-07T02:15:00.713Z,884.6
2024-04-07T02:16:00.665Z,884.6
2024-04-07T02:17:00.593Z,884.5
2024-04-07T02:18:00.626Z,884.5
2024-04-07T02:19:00.646Z,884.5
2024-04-07T02:20:00.637Z,884.6
2024-04-07T02:21:00.585Z,884.7
2024-04-07T02:22:00.588Z,884.7
2024-04-07T02:23:00.573Z,884.8
2024-04-07T02:24:00.582Z,884.8
2024-04-07T02:25:00.645Z,884.7
2024-04-07T02:26:00.579Z,884.7
2024-04-07T02:27:00.601Z,884.7
2024-04-07T02:28:00.590Z,884.7
2024-04-07T02:29:00.594Z,884.6
2024-04-07T02:30:00.637Z,884.6
2024-04-07T02:31:00.653Z,884.5
2024-04-07T02:32:00.575Z,884.6
2024-04-07T02:33:00.586Z,884.6
2024-04-07T02:34:00.574Z,884.6
2024-04-07T02:35:00.582Z,884.7
2024-04-07T02:36:00.582Z,884.7
2024-04-07T02:37:00.758Z,884.7
2024-04-07T02:38:00.590Z,884.6
2024-04-07T02:39:00.580Z,884.6
2024-04-07T02:40:00.639Z,884.5
2024-04-07T02:41:00.576Z,884.5
2024-04-07T02:42:00.587Z,884.5
2024-04-07T02:43:00.637Z,884.5
2024-04-07T02:44:00.578Z,884.4
2024-04-07T02:45:00.626Z,884.4
2024-04-07T02:46:00.597Z,884.3
2024-04-07T02:47:00.574Z,884.3
2024-04-07T02:48:00.569Z,884.3
2024-04-07T02:49:00.650Z,884.3
2024-04-07T02:50:00.634Z,884.3
2024-04-07T02:51:00.632Z,884.3
2024-04-07T02:52:00.607Z,884.3
2024-04-07T02:53:00.669Z,884.3
2024-04-07T02:54:00.645Z,884.3
2024-04-07T02:55:00.760Z,884.3
2024-04-07T02:56:00.642Z,884.2
2024-04-07T02:57:00.627Z,884.2
2024-04-07T02:58:00.662Z,884.2
2024-04-07T02:59:00.618Z,884.3
2024-04-07T03:00:00.595Z,884.3
2024-04-07T03:01:00.652Z,884.2
2024-04-07T03:02:00.578Z,884.3
2024-04-07T03:03:00.587Z,884.3
2024-04-07T03:04:00.589Z,884.2
2024-04-07T03:05:00.641Z,884.2
2024-04-07T03:06:00.652Z,884.2
2024-04-07T03:07:00.623Z,884.1
2024-04-07T03:08:00.703Z,884.1
2024-04-07T03:09:00.581Z,884.1
2024-04-07T03:10:00.587Z,884.2
2024-04-07T03:11:00.583Z,884.2
2024-04-07T03:12:00.594Z,884.3
2024-04-07T03:13:00.612Z,884.3
2024-04-07T03:14:00.725Z,884.3
2024-04-07T03:15:00.638Z,884.3
2024-04-07T03:16:00.585Z,884.3
2024-04-07T03:17:01.533Z,884.4
2024-04-07T03:18:00.591Z,884.4
2024-04-07T03:19:00.584Z,884.4
2024-04-07T03:20:00.637Z,884.3
2024-04-07T03:21:00.639Z,884.3
2024-04-07T03:22:00.586Z,884.3
2024-04-07T03:23:00.585Z,884.3
2024-04-07T03:24:00.584Z,884.3
2024-04-07T03:25:00.582Z,884.3
2024-04-07T03:26:00.670Z,884.3
2024-04-07T03:27:00.642Z,884.3
2024-04-07T03:28:00.577Z,884.3
2024-04-07T03:29:00.591Z,884.4
2024-04-07T03:30:00.632Z,884.4
2024-04-07T03:31:00.576Z,884.4
2024-04-07T03:32:00.591Z,884.4
2024-04-07T03:33:00.661Z,884.4
2024-04-07T03:34:00.575Z,884.4
2024-04-07T03:35:00.622Z,884.4
2024-04-07T03:36:00.719Z,884.4
2024-04-07T03:37:00.592Z,884.4
2024-04-07T03:38:00.637Z,884.4
2024-04-07T03:39:00.667Z,884.5
2024-04-07T03:40:00.589Z,884.5
2024-04-07T03:41:00.740Z,884.5
2024-04-07T03:42:00.592Z,884.5
2024-04-07T03:43:00.608Z,884.4
2024-04-07T03:44:00.634Z,884.4
2024-04-07T03:45:00.588Z,884.4
2024-04-07T03:46:00.696Z,884.5
2024-04-07T03:47:00.639Z,884.4
2024-04-07T03:48:00.586Z,884.5
2024-04-07T03:49:00.592Z,884.5
2024-04-07T03:50:00.632Z,884.5
2024-04-07T03:51:00.648Z,884.5
2024-04-07T03:52:00.576Z,884.5
2024-04-07T03:53:00.640Z,884.5
2024-04-07T03:54:00.644Z,884.5
2024-04-07T03:55:00.642Z,884.5
2024-04-07T03:56:00.620Z,884.6
2024-04-07T03:57:00.584Z,884.6
2024-04-07T03:58:00.576Z,884.6
2024-04-07T03:59:00.594Z,884.6
2024-04-07T04:00:00.590Z,884.6
2024-04-07T04:01:00.648Z,884.6
2024-04-07T04:02:00.581Z,884.6
2024-04-07T04:03:00.586Z,884.6
2024-04-07T04:04:00.596Z,884.6
2024-04-07T04:05:00.654Z,884.6
2024-04-07T04:06:00.673Z,884.7
2024-04-07T04:07:00.590Z,884.7
2024-04-07T04:08:00.601Z,884.7
2024-04-07T04:09:00.590Z,884.7
2024-04-07T04:10:00.600Z,884.7
2024-04-07T04:11:00.635Z,884.8
2024-04-07T04:12:00.575Z,884.8
2024-04-07T04:13:00.658Z,884.8
2024-04-07T04:14:00.578Z,884.8
2024-04-07T04:15:00.615Z,884.8
2024-04-07T04:16:00.592Z,884.8
2024-04-07T04:17:00.852Z,884.8
2024-04-07T04:18:00.591Z,884.9
2024-04-07T04:19:00.582Z,884.9
2024-04-07T04:20:00.586Z,884.9
2024-04-07T04:21:00.594Z,884.9
2024-04-07T04:22:00.685Z,884.9
2024-04-07T04:23:00.627Z,884.9
2024-04-07T04:24:00.673Z,884.9
2024-04-07T04:25:00.619Z,884.9
2024-04-07T04:26:00.643Z,884.9
2024-04-07T04:27:00.675Z,884.9
2024-04-07T04:28:00.643Z,884.9
2024-04-07T04:29:00.638Z,884.8
2024-04-07T04:30:00.637Z,884.8
2024-04-07T04:31:00.587Z,884.8
2024-04-07T04:32:00.596Z,884.8
2024-04-07T04:33:00.577Z,884.8
2024-04-07T04:34:00.611Z,884.8
2024-04-07T04:35:00.639Z,884.8
2024-04-07T04:36:00.585Z,884.8
2024-04-07T04:37:00.610Z,884.8
2024-04-07T04:38:00.650Z,884.8
2024-04-07T04:39:00.593Z,884.8
2024-04-07T04:40:00.581Z,884.8
2024-04-07T04:41:00.604Z,884.8
2024-04-07T04:42:00.614Z,884.9
2024-04-07T04:43:00.667Z,884.9
2024-04-07T04:44:00.615Z,884.9
2024-04-07T04:45:00.585Z,884.9
2024-04-07T04:46:00.591Z,884.9
2024-04-07T04:47:00.596Z,884.9
2024-04-07T04:48:00.607Z,884.9
2024-04-07T04:49:00.577Z,884.9
2024-04-07T04:50:00.591Z,884.9
2024-04-07T04:51:00.584Z,884.9
2024-04-07T04:52:00.595Z,884.9
2024-04-07T04:53:00.720Z,884.8
2024-04-07T04:54:00.577Z,884.9
2024-04-07T04:55:00.599Z,884.9
2024-04-07T04:56:00.581Z,884.9
2024-04-07T04:57:00.592Z,884.9
2024-04-07T04:58:00.782Z,885.0
2024-04-07T04:59:00.644Z,885.0
2024-04-07T05:00:00.638Z,885.0
2024-04-07T05:01:00.590Z,885.0
2024-04-07T05:02:00.732Z,885.1
2024-04-07T05:03:00.583Z,885.1
2024-04-07T05:04:00.594Z,885.1
2024-04-07T05:05:00.639Z,885.1
2024-04-07T05:06:00.587Z,885.1
2024-04-07T05:07:00.592Z,885.1
2024-04-07T05:08:00.630Z,885.1
2024-04-07T05:09:00.651Z,885.1
2024-04-07T05:10:00.656Z,885.1
2024-04-07T05:11:00.646Z,885.1
2024-04-07T05:12:00.652Z,885.1
2024-04-07T05:13:00.718Z,885.1
2024-04-07T05:14:00.688Z,885.1
2024-04-07T05:15:00.618Z,885.1
2024-04-07T05:16:00.635Z,885.1
2024-04-07T05:17:00.729Z,885.1
2024-04-07T05:18:00.591Z,885.2
2024-04-07T05:19:00.581Z,885.2
2024-04-07T05:20:00.582Z,885.2
2024-04-07T05:21:00.588Z,885.2
2024-04-07T05:22:00.655Z,885.2
2024-04-07T05:23:00.592Z,885.2
2024-04-07T05:24:00.574Z,885.2
2024-04-07T05:25:00.647Z,885.2
2024-04-07T05:26:00.577Z,885.2
2024-04-07T05:27:00.587Z,885.2
2024-04-07T05:28:00.644Z,885.2
2024-04-07T05:29:00.585Z,885.2
2024-04-07T05:30:00.604Z,885.2
2024-04-07T05:31:00.581Z,885.1
2024-04-07T05:32:00.584Z,885.2
2024-04-07T05:33:00.580Z,885.1
2024-04-07T05:34:00.647Z,885.2
2024-04-07T05:35:00.607Z,885.1
2024-04-07T05:36:00.606Z,885.1
2024-04-07T05:37:00.590Z,885.1
2024-04-07T05:38:00.578Z,885.2
2024-04-07T05:39:00.585Z,885.2
2024-04-07T05:40:03.644Z,885.2
2024-04-07T05:41:00.585Z,885.2
2024-04-07T05:42:00.586Z,885.1
2024-04-07T05:43:00.590Z,885.1
2024-04-07T05:44:00.583Z,885.1
2024-04-07T05:45:00.580Z,885.1
2024-04-07T05:46:00.648Z,885.1
2024-04-07T05:47:00.579Z,885.1
2024-04-07T05:48:00.581Z,885.1
2024-04-07T05:49:00.589Z,885.1
2024-04-07T05:50:00.585Z,885.1
2024-04-07T05:51:00.584Z,885.1
2024-04-07T05:52:00.642Z,885.1
2024-04-07T05:53:00.649Z,885.1
2024-04-07T05:54:00.587Z,885.1
2024-04-07T05:55:00.695Z,885.1
2024-04-07T05:56:00.645Z,885.2
2024-04-07T05:57:00.663Z,885.2
2024-04-07T05:58:00.673Z,885.2
2024-04-07T05:59:00.638Z,885.2
2024-04-07T06:00:00.584Z,885.2
2024-04-07T06:01:00.588Z,885.2
2024-04-07T06:02:00.593Z,885.2
2024-04-07T06:03:00.630Z,885.2
2024-04-07T06:04:00.645Z,885.3
2024-04-07T06:05:00.593Z,885.3
2024-04-07T06:06:00.583Z,885.2
2024-04-07T06:07:00.592Z,885.2
2024-04-07T06:08:00.575Z,885.2
2024-04-07T06:09:00.640Z,885.2
2024-04-07T06:10:00.594Z,885.2
2024-04-07T06:11:00.584Z,885.3
2024-04-07T06:12:00.584Z,885.3
2024-04-07T06:13:00.592Z,885.3
2024-04-07T06:14:00.577Z,885.3
2024-04-07T06:15:00.666Z,885.3
2024-04-07T06:16:00.614Z,885.3
2024-04-07T06:17:00.589Z,885.3
2024-04-07T06:18:00.802Z,885.3
2024-04-07T06:19:00.588Z,885.3
2024-04-07T06:20:00.592Z,885.3
2024-04-07T06:21:00.728Z,885.3
2024-04-07T06:22:00.583Z,885.3
2024-04-07T06:23:00.596Z,885.3
2024-04-07T06:24:00.600Z,885.3
2024-04-07T06:25:00.616Z,885.4
2024-04-07T06:26:00.608Z,885.4
2024-04-07T06:27:00.653Z,885.3
2024-04-07T06:28:00.583Z,885.4
2024-04-07T06:29:00.644Z,885.4
2024-04-07T06:30:00.604Z,885.4
2024-04-07T06:31:00.590Z,885.4
2024-04-07T06:32:00.625Z,885.4
2024-04-07T06:33:00.632Z,885.4
2024-04-07T06:34:00.612Z,885.4
2024-04-07T06:35:00.698Z,885.4
2024-04-07T06:36:00.582Z,885.4
2024-04-07T06:37:00.659Z,885.4
2024-04-07T06:38:00.622Z,885.4
2024-04-07T06:39:00.601Z,885.4
2024-04-07T06:40:00.580Z,885.4
2024-04-07T06:41:00.727Z,885.4
2024-04-07T06:42:00.694Z,885.4
2024-04-07T06:43:00.592Z,885.4
2024-04-07T06:44:00.598Z,885.4
2024-04-07T06:45:00.584Z,885.5
2024-04-07T06:46:00.581Z,885.5
2024-04-07T06:47:00.576Z,885.5
2024-04-07T06:48:00.654Z,885.5
2024-04-07T06:49:00.579Z,885.5
2024-04-07T06:50:00.592Z,885.5
2024-04-07T06:51:00.581Z,885.5
2024-04-07T06:52:00.606Z,885.5
2024-04-07T06:53:00.632Z,885.5
2024-04-07T06:54:00.631Z,885.4
2024-04-07T06:55:00.600Z,885.5
2024-04-07T06:56:00.603Z,885.5
2024-04-07T06:57:00.599Z,885.5
2024-04-07T06:58:00.635Z,885.5
2024-04-07T06:59:00.590Z,885.4
2024-04-07T07:00:00.599Z,885.5
2024-04-07T07:01:00.595Z,885.4
2024-04-07T07:02:00.598Z,885.4
2024-04-07T07:03:00.643Z,885.4
2024-04-07T07:04:00.579Z,885.4
2024-04-07T07:05:00.658Z,885.4
2024-04-07T07:07:00.597Z,885.5
2024-04-07T07:08:00.608Z,885.4
2024-04-07T07:09:00.815Z,885.4
2024-04-07T07:10:00.583Z,885.4
2024-04-07T07:11:00.615Z,885.4
2024-04-07T07:12:00.588Z,885.4
2024-04-07T07:13:00.596Z,885.4
2024-04-07T07:14:00.612Z,885.4
2024-04-07T07:15:00.632Z,885.4
2024-04-07T07:16:00.664Z,885.4
2024-04-07T07:17:00.633Z,885.4
2024-04-07T07:18:00.588Z,885.4
2024-04-07T07:19:00.677Z,885.4
2024-04-07T07:20:00.743Z,885.4
2024-04-07T07:21:00.691Z,885.3
2024-04-07T07:22:00.639Z,885.3
2024-04-07T07:23:00.598Z,885.3
2024-04-07T07:24:00.599Z,885.3
2024-04-07T07:25:00.603Z,885.3
2024-04-07T07:26:00.583Z,885.3
2024-04-07T07:27:00.635Z,885.3
2024-04-07T07:28:00.608Z,885.3
2024-04-07T07:29:00.628Z,885.2
2024-04-07T07:30:00.614Z,885.2
2024-04-07T07:31:00.636Z,885.2
2024-04-07T07:32:00.643Z,885.2
2024-04-07T07:33:00.649Z,885.2
2024-04-07T07:34:00.592Z,885.1
2024-04-07T07:35:00.648Z,885.2
2024-04-07T07:36:00.582Z,885.2
2024-04-07T07:37:00.586Z,885.1
2024-04-07T07:38:00.808Z,885.1
2024-04-07T07:39:00.631Z,885.1
2024-04-07T07:40:00.578Z,885.1
2024-04-07T07:41:00.617Z,885.1
2024-04-07T07:42:00.590Z,885.0
2024-04-07T07:43:00.577Z,885.0
2024-04-07T07:44:02.556Z,885.0
2024-04-07T07:45:00.656Z,885.0
2024-04-07T07:46:00.583Z,885.0
2024-04-07T07:47:00.682Z,885.0
2024-04-07T07:48:00.595Z,885.0
2024-04-07T07:49:00.593Z,884.9
2024-04-07T07:50:00.658Z,885.0
2024-04-07T07:51:00.629Z,884.9
2024-04-07T07:52:00.586Z,885.0
2024-04-07T07:53:00.710Z,884.9
2024-04-07T07:54:00.658Z,885.0
2024-04-07T07:55:00.638Z,885.0
2024-04-07T07:56:00.667Z,884.9
2024-04-07T07:57:00.589Z,885.0
2024-04-07T07:58:00.588Z,884.9
2024-04-07T07:59:00.632Z,885.0
2024-04-07T08:00:14.228Z,884.9
2024-04-07T08:01:00.679Z,884.9
2024-04-07T08:02:00.663Z,884.9
2024-04-07T08:03:00.688Z,884.9
2024-04-07T08:04:00.595Z,884.9
2024-04-07T08:05:00.687Z,884.9
2024-04-07T08:06:00.693Z,884.9
2024-04-07T08:07:00.635Z,884.9
2024-04-07T08:08:00.800Z,884.9
2024-04-07T08:09:00.775Z,884.9
2024-04-07T08:10:00.590Z,884.9
2024-04-07T08:11:00.643Z,884.9
2024-04-07T08:12:00.618Z,884.9
2024-04-07T08:13:00.606Z,884.9
2024-04-07T08:14:00.676Z,884.9
2024-04-07T08:15:00.597Z,884.9
2024-04-07T08:16:00.598Z,884.8
2024-04-07T08:17:00.614Z,884.9
2024-04-07T08:18:00.600Z,884.8
2024-04-07T08:19:00.598Z,884.8
2024-04-07T08:20:00.773Z,884.8
2024-04-07T08:21:00.593Z,884.8
2024-04-07T08:22:00.594Z,884.7
2024-04-07T08:23:00.728Z,884.7
2024-04-07T08:24:00.624Z,884.6
2024-04-07T08:25:00.610Z,884.6
2024-04-07T08:26:00.756Z,884.6
2024-04-07T08:27:00.594Z,884.6
2024-04-07T08:28:00.583Z,884.6
2024-04-07T08:29:00.760Z,884.5
2024-04-07T08:30:00.586Z,884.6
2024-04-07T08:31:00.580Z,884.5
2024-04-07T08:32:00.686Z,884.4
2024-04-07T08:33:00.620Z,884.4
2024-04-07T08:34:00.599Z,884.4
2024-04-07T08:35:00.652Z,884.4
2024-04-07T08:36:00.596Z,884.4
2024-04-07T08:37:00.600Z,884.5
2024-04-07T08:38:00.712Z,884.5
2024-04-07T08:39:00.590Z,884.4
2024-04-07T08:40:00.579Z,884.4
2024-04-07T08:41:00.656Z,884.4
2024-04-07T08:42:00.590Z,884.4
2024-04-07T08:43:00.766Z,884.3
2024-04-07T08:44:00.593Z,884.3
2024-04-07T08:45:00.635Z,884.3
2024-04-07T08:46:00.587Z,884.3
2024-04-07T08:47:00.655Z,884.3
2024-04-07T08:48:00.589Z,884.3
2024-04-07T08:49:00.667Z,884.3
2024-04-07T08:50:00.648Z,884.3
2024-04-07T08:51:00.589Z,884.3
2024-04-07T08:52:00.619Z,884.3
2024-04-07T08:53:00.622Z,884.2
2024-04-07T08:54:00.650Z,884.2
2024-04-07T08:55:00.656Z,884.2
2024-04-07T08:56:00.635Z,884.2
2024-04-07T08:57:00.600Z,884.2
2024-04-07T08:58:00.588Z,884.2
2024-04-07T08:59:00.685Z,884.2
2024-04-07T09:00:00.655Z,884.2
2024-04-07T09:01:00.599Z,884.2
2024-04-07T09:02:00.627Z,884.2
2024-04-07T09:03:00.592Z,884.2
2024-04-07T09:04:00.587Z,884.2
2024-04-07T09:05:00.716Z,884.2
2024-04-07T09:06:00.617Z,884.2
2024-04-07T09:07:00.581Z,884.2
2024-04-07T09:08:00.668Z,884.2
2024-04-07T09:09:00.811Z,884.2
2024-04-07T09:10:00.585Z,884.2
2024-04-07T09:11:00.616Z,884.1
2024-04-07T09:12:00.593Z,884.2
2024-04-07T09:13:00.595Z,884.2
2024-04-07T09:14:00.647Z,884.2
2024-04-07T09:15:00.679Z,884.2
2024-04-07T09:16:00.591Z,884.2
2024-04-07T09:17:00.691Z,884.2
2024-04-07T09:18:00.587Z,884.3
2024-04-07T09:19:00.602Z,884.3
2024-04-07T09:20:00.653Z,884.3
2024-04-07T09:21:00.633Z,884.2
2024-04-07T09:22:00.588Z,884.2
2024-04-07T09:23:00.599Z,884.2
2024-04-07T09:24:00.640Z,884.2
2024-04-07T09:25:00.583Z,884.2
2024-04-07T09:26:00.659Z,884.2
2024-04-07T09:27:00.583Z,884.2
2024-04-07T09:28:00.593Z,884.2
2024-04-07T09:29:00.618Z,884.2
2024-04-07T09:30:00.597Z,884.2
2024-04-07T09:31:00.635Z,884.2
2024-04-07T09:32:00.639Z,884.2
2024-04-07T09:33:00.586Z,884.2
2024-04-07T09:34:00.597Z,884.2
2024-04-07T09:35:00.699Z,884.3
2024-04-07T09:36:00.594Z,884.3
2024-04-07T09:37:00.584Z,884.3
2024-04-07T09:38:00.571Z,884.3
2024-04-07T09:39:00.644Z,884.3
2024-04-07T09:40:00.585Z,884.3
2024-04-07T09:41:00.675Z,884.3
2024-04-07T09:42:00.585Z,884.4
2024-04-07T09:43:00.585Z,884.3
2024-04-07T09:44:00.631Z,884.3
2024-04-07T09:45:00.608Z,884.3
2024-04-07T09:46:00.644Z,884.3
2024-04-07T09:47:00.677Z,884.3
2024-04-07T09:48:00.587Z,884.3
2024-04-07T09:49:00.647Z,884.3
2024-04-07T09:50:00.612Z,884.3
2024-04-07T09:51:00.620Z,884.3
2024-04-07T09:52:00.587Z,884.3
2024-04-07T09:53:00.815Z,884.3
2024-04-07T09:54:00.676Z,884.3
2024-04-07T09:55:00.604Z,884.3
2024-04-07T09:56:00.611Z,884.3
2024-04-07T09:57:00.652Z,884.3
2024-04-07T09:58:00.583Z,884.3
2024-04-07T09:59:00.667Z,884.3
2024-04-07T10:00:00.602Z,884.3
2024-04-07T10:01:00.590Z,884.3
2024-04-07T10:02:00.675Z,884.2
2024-04-07T10:03:00.655Z,884.2
2024-04-07T10:04:00.604Z,884.2
2024-04-07T10:05:00.644Z,884.2
2024-04-07T10:06:00.574Z,884.2
2024-04-07T10:07:00.584Z,884.1
2024-04-07T10:08:00.629Z,884.1
2024-04-07T10:09:00.721Z,884.2
2024-04-07T10:10:00.593Z,884.1
2024-04-07T10:11:08.125Z,884.1
2024-04-07T10:12:00.642Z,884.1
2024-04-07T10:13:00.648Z,884.1
2024-04-07T10:14:00.603Z,884.1
2024-04-07T10:15:00.615Z,884.0
2024-04-07T10:16:00.575Z,884.1
2024-04-07T10:17:00.690Z,884.1
2024-04-07T10:18:00.588Z,884.0
2024-04-07T10:19:00.626Z,884.0
2024-04-07T10:20:00.637Z,884.1
2024-04-07T10:21:00.592Z,884.0
2024-04-07T10:22:00.599Z,884.0
2024-04-07T10:23:00.777Z,884.0
2024-04-07T10:24:00.578Z,884.0
2024-04-07T10:25:00.593Z,884.0
2024-04-07T10:26:00.648Z,884.0
2024-04-07T10:27:00.632Z,883.9
2024-04-07T10:28:00.670Z,884.0
2024-04-07T10:29:00.708Z,883.9
2024-04-07T10:30:00.675Z,883.9
2024-04-07T10:31:00.643Z,883.9
2024-04-07T10:32:00.645Z,883.9
2024-04-07T10:33:00.601Z,883.8
2024-04-07T10:34:00.585Z,883.9
2024-04-07T10:35:00.652Z,883.9
2024-04-07T10:36:00.618Z,883.9
2024-04-07T10:37:00.676Z,883.9
2024-04-07T10:38:00.583Z,883.9
2024-04-07T10:39:00.591Z,883.9
2024-04-07T10:40:00.577Z,883.9
2024-04-07T10:41:00.704Z,883.8
2024-04-07T10:42:00.590Z,883.9
2024-04-07T10:43:00.600Z,883.9
2024-04-07T10:44:00.639Z,883.9
2024-04-07T10:45:00.598Z,883.9
2024-04-07T10:46:00.583Z,883.9
2024-04-07T10:47:00.678Z,883.9
2024-04-07T10:48:00.586Z,883.9
2024-04-07T10:49:00.598Z,883.9
2024-04-07T10:50:00.638Z,883.9
2024-04-07T10:51:00.574Z,883.9
2024-04-07T10:52:00.653Z,883.9
2024-04-07T10:53:00.717Z,883.9
2024-04-07T10:54:00.588Z,883.9
2024-04-07T10:55:00.599Z,883.9
2024-04-07T10:56:00.596Z,883.9
2024-04-07T10:57:00.584Z,883.9
2024-04-07T10:58:00.583Z,883.9
2024-04-07T10:59:00.816Z,883.9
2024-04-07T11:00:00.615Z,883.9
2024-04-07T11:01:00.586Z,883.9
2024-04-07T11:02:00.667Z,883.9
2024-04-07T11:03:00.581Z,883.9
2024-04-07T11:04:00.585Z,883.9
2024-04-07T11:05:00.652Z,883.9
2024-04-07T11:06:00.584Z,883.9
2024-04-07T11:07:00.644Z,883.8
2024-04-07T11:08:00.615Z,883.9
2024-04-07T11:09:00.581Z,883.9
2024-04-07T11:10:00.586Z,883.9
2024-04-07T11:11:00.719Z,883.9
2024-04-07T11:12:00.580Z,883.9
2024-04-07T11:13:00.589Z,883.9
2024-04-07T11:14:00.658Z,883.9
2024-04-07T11:15:00.627Z,883.8
2024-04-07T11:16:00.684Z,883.8
2024-04-07T11:17:00.688Z,883.8
2024-04-07T11:18:00.653Z,883.8
2024-04-07T11:19:00.613Z,883.8
2024-04-07T11:20:00.693Z,883.7
2024-04-07T11:21:00.590Z,883.7
2024-04-07T11:22:00.697Z,883.7
2024-04-07T11:23:00.728Z,883.7
2024-04-07T11:24:00.668Z,883.7
2024-04-07T11:25:00.575Z,883.7
2024-04-07T11:26:00.675Z,883.7
2024-04-07T11:27:00.601Z,883.7
2024-04-07T11:28:00.632Z,883.7
2024-04-07T11:29:00.649Z,883.7
2024-04-07T11:30:00.594Z,883.7
2024-04-07T11:31:00.575Z,883.7
2024-04-07T11:32:07.683Z,883.8
2024-04-07T11:33:00.594Z,883.8
2024-04-07T11:34:00.589Z,883.8
2024-04-07T11:35:00.582Z,883.7
2024-04-07T11:36:00.583Z,883.8
2024-04-07T11:37:00.632Z,883.8
2024-04-07T11:38:00.689Z,883.8
2024-04-07T11:39:00.586Z,883.8
2024-04-07T11:40:00.641Z,883.8
2024-04-07T11:41:00.679Z,883.8
2024-04-07T11:42:00.586Z,883.8
2024-04-07T11:43:00.579Z,883.8
2024-04-07T11:44:00.604Z,883.8
2024-04-07T11:45:00.582Z,883.8
2024-04-07T11:46:00.578Z,883.7
2024-04-07T11:47:00.627Z,883.8
2024-04-07T11:48:00.581Z,883.8
2024-04-07T11:49:00.643Z,883.8
2024-04-07T11:50:00.602Z,883.8
2024-04-07T11:51:00.654Z,883.7
2024-04-07T11:52:00.594Z,883.7
2024-04-07T11:53:00.615Z,883.8
2024-04-07T11:54:00.582Z,883.7
2024-04-07T11:55:00.577Z,883.7
2024-04-07T11:56:00.619Z,883.7
2024-04-07T11:57:00.692Z,883.7
2024-04-07T11:58:00.584Z,883.7
2024-04-07T11:59:00.628Z,883.7
2024-04-07T12:00:00.594Z,883.7
2024-04-07T12:01:00.596Z,883.7
2024-04-07T12:02:00.677Z,883.8
2024-04-07T12:03:00.786Z,883.8
2024-04-07T12:04:00.659Z,883.8
2024-04-07T12:05:00.657Z,883.8
2024-04-07T12:06:00.602Z,883.8
2024-04-07T12:07:00.616Z,883.8
2024-04-07T12:08:00.693Z,883.7
2024-04-07T12:09:00.746Z,883.7
2024-04-07T12:10:00.602Z,883.7
2024-04-07T12:11:00.620Z,883.8
2024-04-07T12:12:00.675Z,883.7
2024-04-07T12:13:00.613Z,883.7
2024-04-07T12:14:00.633Z,883.7
2024-04-07T12:15:00.702Z,883.7
2024-04-07T12:16:00.643Z,883.7
2024-04-07T12:17:00.665Z,883.7
2024-04-07T12:18:00.588Z,883.7
2024-04-07T12:19:00.622Z,883.7
2024-04-07T12:20:00.733Z,883.7
2024-04-07T12:21:00.636Z,883.7
2024-04-07T12:22:00.601Z,883.7
2024-04-07T12:23:00.619Z,883.7
2024-04-07T12:24:00.642Z,883.7
2024-04-07T12:25:00.617Z,883.7
2024-04-07T12:26:00.610Z,883.7
2024-04-07T12:27:00.638Z,883.7
2024-04-07T12:28:00.645Z,883.7
2024-04-07T12:29:00.588Z,883.7
2024-04-07T12:30:00.619Z,883.7
2024-04-07T12:31:00.579Z,883.8
2024-04-07T12:32:00.592Z,883.8
2024-04-07T12:33:00.642Z,883.8
2024-04-07T12:34:00.633Z,883.8
2024-04-07T12:35:00.592Z,883.9
2024-04-07T12:36:00.588Z,883.8
2024-04-07T12:37:00.591Z,883.8
2024-04-07T12:38:00.614Z,883.8
2024-04-07T12:39:00.650Z,883.8
2024-04-07T12:40:00.578Z,883.8
2024-04-07T12:41:00.580Z,883.8
2024-04-07T12:42:00.579Z,883.8
2024-04-07T12:43:00.648Z,883.8
2024-04-07T12:44:00.574Z,883.8
2024-04-07T12:45:00.642Z,883.8
2024-04-07T12:46:00.640Z,883.8
2024-04-07T12:47:00.595Z,883.9
2024-04-07T12:48:00.611Z,883.8
2024-04-07T12:49:03.769Z,883.9
2024-04-07T12:50:00.658Z,883.9
2024-04-07T12:51:00.677Z,883.9
2024-04-07T12:52:00.670Z,883.9
2024-04-07T12:53:00.603Z,883.9